createdAt,value
2023-05-10T00:00:09.730Z,195.26
2023-05-10T00:01:09.721Z,196.34
2023-05-10T00:02:09.836Z,195.86
2023-05-10T00:03:09.887Z,197.63
2023-05-10T00:04:09.980Z,198.92
2023-05-10T00:05:09.819Z,196.19
2023-05-10T00:06:09.859Z,197.19
2023-05-10T00:07:09.891Z,195.99
2023-05-10T00:08:09.936Z,197.07
2023-05-10T00:09:09.906Z,200.90
2023-05-10T00:10:09.933Z,196.97
2023-05-10T00:11:09.998Z,198.05
2023-05-10T00:12:10.019Z,200.69
2023-05-10T00:13:10.079Z,201.26
2023-05-10T00:14:10.035Z,197.25
2023-05-10T00:15:10.092Z,199.79
2023-05-10T00:16:10.091Z,201.62
2023-05-10T00:17:10.120Z,200.88
2023-05-10T00:18:10.163Z,199.43
2023-05-10T00:19:10.178Z,200.89
2023-05-10T00:20:10.177Z,201.17
2023-05-10T00:21:10.219Z,198.93
2023-05-10T00:22:10.214Z,201.25
2023-05-10T00:23:10.244Z,198.41
2023-05-10T00:24:10.267Z,200.10
2023-05-10T00:25:10.290Z,201.40
2023-05-10T00:26:10.283Z,204.59
2023-05-10T00:27:10.321Z,202.11
2023-05-10T00:28:10.366Z,202.69
2023-05-10T00:29:10.360Z,204.75
2023-05-10T00:30:10.390Z,205.42
2023-05-10T00:31:10.393Z,204.49
2023-05-10T00:32:10.484Z,204.93
2023-05-10T00:33:10.516Z,202.24
2023-05-10T00:34:10.436Z,208.10
2023-05-10T00:35:10.446Z,202.93
2023-05-10T00:36:10.448Z,204.89
2023-05-10T00:37:10.505Z,205.63
2023-05-10T00:38:10.491Z,203.41
2023-05-10T00:39:10.531Z,202.41
2023-05-10T00:40:10.549Z,203.77
2023-05-10T00:41:10.575Z,203.25
2023-05-10T00:42:10.600Z,205.53
2023-05-10T00:43:10.601Z,207.95
2023-05-10T00:44:10.622Z,205.70
2023-05-10T00:45:10.651Z,207.54
2023-05-10T00:46:10.689Z,205.55
2023-05-10T00:47:10.674Z,207.73
2023-05-10T00:48:10.733Z,208.71
2023-05-10T00:49:10.756Z,206.70
2023-05-10T00:50:10.778Z,205.03
2023-05-10T00:51:10.797Z,212.41
2023-05-10T00:52:10.794Z,209.32
2023-05-10T00:53:10.826Z,211.21
2023-05-10T00:54:10.863Z,210.09
2023-05-10T00:55:10.889Z,210.86
2023-05-10T00:56:10.897Z,214.38
2023-05-10T00:57:10.914Z,213.05
2023-05-10T00:58:10.932Z,209.96
2023-05-10T00:59:10.926Z,214.70
2023-05-10T01:00:10.978Z,212.00
2023-05-10T01:01:11.041Z,211.90
2023-05-10T01:02:11.037Z,215.69
2023-05-10T01:03:11.077Z,214.28
2023-05-10T01:04:11.031Z,214.03
2023-05-10T01:05:11.158Z,216.62
2023-05-10T01:06:11.095Z,215.21
2023-05-10T01:07:11.103Z,214.58
2023-05-10T01:08:11.146Z,215.93
2023-05-10T01:09:11.172Z,218.38
2023-05-10T01:10:11.175Z,219.47
2023-05-10T01:11:11.213Z,220.09
2023-05-10T01:12:11.282Z,217.42
2023-05-10T01:13:11.260Z,216.79
2023-05-10T01:14:11.255Z,218.06
2023-05-10T01:15:11.266Z,219.78
2023-05-10T01:16:11.368Z,217.84
2023-05-10T01:17:11.344Z,218.15
2023-05-10T01:18:11.361Z,219.42
2023-05-10T01:19:11.386Z,221.01
2023-05-10T01:20:11.429Z,221.47
2023-05-10T01:21:11.426Z,220.41
2023-05-10T01:22:11.470Z,220.89
2023-05-10T01:23:11.492Z,221.87
2023-05-10T01:24:11.504Z,221.90
2023-05-10T01:25:11.517Z,220.28
2023-05-10T01:26:11.551Z,223.11
2023-05-10T01:27:11.575Z,223.45
2023-05-10T01:28:11.595Z,224.35
2023-05-10T01:29:11.626Z,223.17
2023-05-10T01:30:16.009Z,223.35
2023-05-10T01:31:11.658Z,223.65
2023-05-10T01:32:11.637Z,224.16
2023-05-10T01:33:11.627Z,224.85
2023-05-10T01:34:11.622Z,224.13
2023-05-10T01:35:11.622Z,227.38
2023-05-10T01:36:11.603Z,226.07
2023-05-10T01:37:11.558Z,227.68
2023-05-10T01:38:11.582Z,227.32
2023-05-10T01:39:11.564Z,227.90
2023-05-10T01:40:11.550Z,228.39
2023-05-10T01:41:11.573Z,229.13
2023-05-10T01:42:11.526Z,228.61
2023-05-10T01:43:11.541Z,228.27
2023-05-10T01:44:11.549Z,230.80
2023-05-10T01:45:11.513Z,227.78
2023-05-10T01:46:11.650Z,227.88
2023-05-10T01:47:11.496Z,227.49
2023-05-10T01:48:11.574Z,229.22
2023-05-10T01:49:11.511Z,226.76
2023-05-10T01:50:11.505Z,227.12
2023-05-10T01:51:11.492Z,229.89
2023-05-10T01:52:11.502Z,228.61
2023-05-10T01:53:11.471Z,227.40
2023-05-10T01:54:11.437Z,228.76
2023-05-10T01:55:11.437Z,230.68
2023-05-10T01:56:11.476Z,227.96
2023-05-10T01:57:11.449Z,229.66
2023-05-10T01:58:11.440Z,232.30
2023-05-10T01:59:11.438Z,229.03
2023-05-10T02:00:11.417Z,230.80
2023-05-10T02:01:11.479Z,229.50
2023-05-10T02:02:11.403Z,229.67
2023-05-10T02:03:11.503Z,229.53
2023-05-10T02:04:11.487Z,237.94
2023-05-10T02:05:11.415Z,233.07
2023-05-10T02:06:11.402Z,232.96
2023-05-10T02:07:11.375Z,234.66
2023-05-10T02:08:11.379Z,232.42
2023-05-10T02:09:11.369Z,236.14
2023-05-10T02:10:11.355Z,230.89
2023-05-10T02:11:11.388Z,231.26
2023-05-10T02:12:11.392Z,236.78
2023-05-10T02:13:11.426Z,236.04
2023-05-10T02:14:11.402Z,231.46
2023-05-10T02:15:11.433Z,233.79
2023-05-10T02:16:11.491Z,237.07
2023-05-10T02:17:11.459Z,231.77
2023-05-10T02:18:11.511Z,234.54
2023-05-10T02:19:11.519Z,234.10
2023-05-10T02:20:11.509Z,236.35
2023-05-10T02:21:11.556Z,237.43
2023-05-10T02:22:11.527Z,236.81
2023-05-10T02:23:11.599Z,235.06
2023-05-10T02:24:11.586Z,236.66
2023-05-10T02:25:11.586Z,234.70
2023-05-10T02:26:11.625Z,235.12
2023-05-10T02:27:11.638Z,240.69
2023-05-10T02:28:11.685Z,234.77
2023-05-10T02:29:11.666Z,235.66
2023-05-10T02:30:11.732Z,236.30
2023-05-10T02:31:11.724Z,235.46
2023-05-10T02:32:11.879Z,237.14
2023-05-10T02:33:11.720Z,238.12
2023-05-10T02:34:11.756Z,236.44
2023-05-10T02:35:11.752Z,237.19
2023-05-10T02:36:11.812Z,235.70
2023-05-10T02:37:11.801Z,238.89
2023-05-10T02:38:11.828Z,238.60
2023-05-10T02:39:11.813Z,236.97
2023-05-10T02:40:11.873Z,241.54
2023-05-10T02:41:11.890Z,239.02
2023-05-10T02:42:11.920Z,237.79
2023-05-10T02:43:11.910Z,240.87
2023-05-10T02:44:11.933Z,236.47
2023-05-10T02:45:11.935Z,240.87
2023-05-10T02:46:11.960Z,238.51
2023-05-10T02:47:11.957Z,240.41
2023-05-10T02:48:11.992Z,241.11
2023-05-10T02:49:11.994Z,239.86
2023-05-10T02:50:12.014Z,241.88
2023-05-10T02:51:12.046Z,239.29
2023-05-10T02:52:12.051Z,242.51
2023-05-10T02:53:12.080Z,241.99
2023-05-10T02:54:12.084Z,239.93
2023-05-10T02:55:12.085Z,242.51
2023-05-10T02:56:12.076Z,242.74
2023-05-10T02:57:12.110Z,242.01
2023-05-10T02:58:12.200Z,240.53
2023-05-10T02:59:12.114Z,242.92
2023-05-10T03:00:12.114Z,242.55
2023-05-10T03:01:12.192Z,242.86
2023-05-10T03:02:12.145Z,243.89
2023-05-10T03:03:12.179Z,242.09
2023-05-10T03:04:12.205Z,242.33
2023-05-10T03:05:12.192Z,246.71
2023-05-10T03:06:12.219Z,243.09
2023-05-10T03:07:12.217Z,241.49
2023-05-10T03:08:12.250Z,245.85
2023-05-10T03:09:12.268Z,244.72
2023-05-10T03:10:12.317Z,244.04
2023-05-10T03:11:12.321Z,244.12
2023-05-10T03:12:12.349Z,247.19
2023-05-10T03:13:12.443Z,240.12
2023-05-10T03:14:12.409Z,242.32
2023-05-10T03:15:12.386Z,244.62
2023-05-10T03:16:12.410Z,243.93
2023-05-10T03:17:12.425Z,244.48
2023-05-10T03:18:12.495Z,243.80
2023-05-10T03:19:12.490Z,243.65
2023-05-10T03:20:12.480Z,245.47
2023-05-10T03:21:12.475Z,246.33
2023-05-10T03:22:12.502Z,245.09
2023-05-10T03:23:12.528Z,246.47
2023-05-10T03:24:12.533Z,244.92
2023-05-10T03:25:12.588Z,242.97
2023-05-10T03:26:12.578Z,244.05
2023-05-10T03:27:12.607Z,245.23
2023-05-10T03:28:12.609Z,245.42
2023-05-10T03:29:12.605Z,245.96
2023-05-10T03:30:12.656Z,245.13
2023-05-10T03:31:12.751Z,246.24
2023-05-10T03:32:12.706Z,245.39
2023-05-10T03:33:12.709Z,245.08
2023-05-10T03:34:12.716Z,245.12
2023-05-10T03:35:12.747Z,247.80
2023-05-10T03:36:12.773Z,246.44
2023-05-10T03:37:12.758Z,243.67
2023-05-10T03:38:12.807Z,245.71
2023-05-10T03:39:12.822Z,246.28
2023-05-10T03:40:12.844Z,242.66
2023-05-10T03:41:12.876Z,245.60
2023-05-10T03:42:12.927Z,248.22
2023-05-10T03:43:12.915Z,245.07
2023-05-10T03:44:12.928Z,246.59
2023-05-10T03:45:12.977Z,246.65
2023-05-10T03:46:12.972Z,245.86
2023-05-10T03:47:12.939Z,243.94
2023-05-10T03:48:13.008Z,244.98
2023-05-10T03:49:13.029Z,247.64
2023-05-10T03:50:13.016Z,247.96
2023-05-10T03:51:13.005Z,246.92
2023-05-10T03:52:13.027Z,246.91
2023-05-10T03:53:13.113Z,247.30
2023-05-10T03:54:13.064Z,246.82
2023-05-10T03:55:13.114Z,247.45
2023-05-10T03:56:13.097Z,246.84
2023-05-10T03:57:13.149Z,245.80
2023-05-10T03:58:13.165Z,247.65
2023-05-10T03:59:13.184Z,245.53
2023-05-10T04:00:13.170Z,248.04
2023-05-10T04:01:13.205Z,245.31
2023-05-10T04:02:13.305Z,246.04
2023-05-10T04:03:13.280Z,249.50
2023-05-10T04:04:13.393Z,245.62
2023-05-10T04:05:13.315Z,249.10
2023-05-10T04:06:13.331Z,244.53
2023-05-10T04:07:13.315Z,242.17
2023-05-10T04:08:13.327Z,246.28
2023-05-10T04:09:13.355Z,247.91
2023-05-10T04:10:13.344Z,248.91
2023-05-10T04:11:13.381Z,249.31
2023-05-10T04:12:13.383Z,248.67
2023-05-10T04:13:13.456Z,245.18
2023-05-10T04:14:13.453Z,244.29
2023-05-10T04:15:13.443Z,245.89
2023-05-10T04:16:13.443Z,243.85
2023-05-10T04:17:13.644Z,244.93
2023-05-10T04:18:13.449Z,247.08
2023-05-10T04:19:13.481Z,249.95
2023-05-10T04:20:13.540Z,245.47
2023-05-10T04:21:13.493Z,245.09
2023-05-10T04:22:13.491Z,241.63
2023-05-10T04:23:13.507Z,248.90
2023-05-10T04:24:13.606Z,244.76
2023-05-10T04:25:13.537Z,244.05
2023-05-10T04:26:13.570Z,245.94
2023-05-10T04:27:13.569Z,246.60
2023-05-10T04:28:13.593Z,247.04
2023-05-10T04:29:13.610Z,243.03
2023-05-10T04:30:13.616Z,245.86
2023-05-10T04:31:13.656Z,246.52
2023-05-10T04:32:13.660Z,245.94
2023-05-10T04:33:13.660Z,246.78
2023-05-10T04:34:13.671Z,245.26
2023-05-10T04:35:13.681Z,249.55
2023-05-10T04:36:13.694Z,245.72
2023-05-10T04:37:13.702Z,244.53
2023-05-10T04:38:13.720Z,243.81
2023-05-10T04:39:13.739Z,243.30
2023-05-10T04:40:13.846Z,243.00
2023-05-10T04:41:13.764Z,245.53
2023-05-10T04:42:13.791Z,242.88
2023-05-10T04:43:13.807Z,248.59
2023-05-10T04:44:13.818Z,243.19
2023-05-10T04:45:13.802Z,245.85
2023-05-10T04:46:13.881Z,243.61
2023-05-10T04:47:13.836Z,243.95
2023-05-10T04:48:13.859Z,243.92
2023-05-10T04:49:13.851Z,242.33
2023-05-10T04:50:13.903Z,242.64
2023-05-10T04:51:13.890Z,242.92
2023-05-10T04:52:13.898Z,242.17
2023-05-10T04:53:15.873Z,242.91
2023-05-10T04:54:13.907Z,243.57
2023-05-10T04:55:13.909Z,246.20
2023-05-10T04:56:13.948Z,244.31
2023-05-10T04:57:13.934Z,245.24
2023-05-10T04:58:13.938Z,247.37
2023-05-10T04:59:13.938Z,246.92
2023-05-10T05:00:14.073Z,246.26
2023-05-10T05:01:21.027Z,244.80
2023-05-10T05:02:13.958Z,245.26
2023-05-10T05:03:14.078Z,245.72
2023-05-10T05:04:13.940Z,246.07
2023-05-10T05:05:13.950Z,249.07
2023-05-10T05:06:14.779Z,248.34
2023-05-10T05:07:13.947Z,247.60
2023-05-10T05:08:13.952Z,247.16
2023-05-10T05:09:13.931Z,244.34
2023-05-10T05:10:14.009Z,241.80
2023-05-10T05:11:13.919Z,244.30
2023-05-10T05:12:13.936Z,248.25
2023-05-10T05:13:13.947Z,244.23
2023-05-10T05:14:13.895Z,243.39
2023-05-10T05:15:13.872Z,250.00
2023-05-10T05:16:13.936Z,243.22
2023-05-10T05:17:13.901Z,245.74
2023-05-10T05:18:13.872Z,241.40
2023-05-10T05:19:13.875Z,244.99
2023-05-10T05:20:13.940Z,245.38
2023-05-10T05:21:13.888Z,246.46
2023-05-10T05:22:13.854Z,244.40
2023-05-10T05:23:13.887Z,242.30
2023-05-10T05:24:13.879Z,243.12
2023-05-10T05:25:13.886Z,242.76
2023-05-10T05:26:13.896Z,243.89
2023-05-10T05:27:13.824Z,241.60
2023-05-10T05:28:13.823Z,244.36
2023-05-10T05:29:13.813Z,243.54
2023-05-10T05:30:13.806Z,245.95
2023-05-10T05:31:13.854Z,241.42
2023-05-10T05:32:13.820Z,244.16
2023-05-10T05:33:13.791Z,243.82
2023-05-10T05:34:13.808Z,250.00
2023-05-10T05:35:13.783Z,288.28
2023-05-10T05:36:13.787Z,279.13
2023-05-10T05:37:13.756Z,251.57
2023-05-10T05:38:13.804Z,257.92
2023-05-10T05:39:13.818Z,246.28
2023-05-10T05:40:13.756Z,250.47
2023-05-10T05:41:13.789Z,240.36
2023-05-10T05:42:13.760Z,235.97
2023-05-10T05:43:13.758Z,235.45
2023-05-10T05:44:13.875Z,234.31
2023-05-10T05:45:13.798Z,234.20
2023-05-10T05:46:20.794Z,243.07
2023-05-10T05:47:13.743Z,243.33
2023-05-10T05:48:13.722Z,243.35
2023-05-10T05:49:13.683Z,243.35
2023-05-10T05:50:13.683Z,252.05
2023-05-10T05:51:13.667Z,253.55
2023-05-10T05:52:13.643Z,250.67
2023-05-10T05:53:13.689Z,249.10
2023-05-10T05:54:13.822Z,241.06
2023-05-10T05:55:13.665Z,237.65
2023-05-10T05:56:13.614Z,241.36
2023-05-10T05:57:13.671Z,236.79
2023-05-10T05:58:13.641Z,236.57
2023-05-10T05:59:13.826Z,234.15
2023-05-10T06:00:13.616Z,228.92
2023-05-10T06:01:13.621Z,227.54
2023-05-10T06:02:13.675Z,226.59
2023-05-10T06:03:13.677Z,225.74
2023-05-10T06:04:13.705Z,225.81
2023-05-10T06:05:13.631Z,223.12
2023-05-10T06:06:13.600Z,217.60
2023-05-10T06:07:13.602Z,215.09
2023-05-10T06:08:13.575Z,216.08
2023-05-10T06:09:13.858Z,213.10
2023-05-10T06:10:13.567Z,212.72
2023-05-10T06:11:13.575Z,207.58
2023-05-10T06:12:13.537Z,205.66
2023-05-10T06:13:13.564Z,203.29
2023-05-10T06:14:13.834Z,202.30
2023-05-10T06:15:13.785Z,199.87
2023-05-10T06:16:13.744Z,198.12
2023-05-10T06:17:13.694Z,198.07
2023-05-10T06:18:13.838Z,196.00
2023-05-10T06:19:13.806Z,196.47
2023-05-10T06:20:13.844Z,188.50
2023-05-10T06:21:13.867Z,184.60
2023-05-10T06:22:13.901Z,181.30
2023-05-10T06:23:13.974Z,184.80
2023-05-10T06:24:14.033Z,184.54
2023-05-10T06:25:14.177Z,185.08
2023-05-10T06:26:14.143Z,185.88
2023-05-10T06:27:14.195Z,185.08
2023-05-10T06:28:14.209Z,180.28
2023-05-10T06:29:14.276Z,180.46
2023-05-10T06:30:14.367Z,182.60
2023-05-10T06:31:14.372Z,180.82
2023-05-10T06:32:14.377Z,175.48
2023-05-10T06:33:14.463Z,178.13
2023-05-10T06:34:14.496Z,176.83
2023-05-10T06:35:14.612Z,179.07
2023-05-10T06:36:14.622Z,179.69
2023-05-10T06:37:14.648Z,176.67
2023-05-10T06:38:14.672Z,174.49
2023-05-10T06:39:14.787Z,171.18
2023-05-10T06:40:14.779Z,166.79
2023-05-10T06:41:14.832Z,161.64
2023-05-10T06:42:14.857Z,161.92
2023-05-10T06:43:15.820Z,162.73
2023-05-10T06:44:15.946Z,162.90
2023-05-10T06:45:15.051Z,161.55
2023-05-10T06:46:14.974Z,162.14
2023-05-10T06:47:14.883Z,159.18
2023-05-10T06:48:15.022Z,159.92
2023-05-10T06:49:14.916Z,160.70
2023-05-10T06:50:14.978Z,160.30
2023-05-10T06:51:14.891Z,161.01
2023-05-10T06:52:14.852Z,160.97
2023-05-10T06:53:14.872Z,162.93
2023-05-10T06:54:14.837Z,163.99
2023-05-10T06:55:15.114Z,161.98
2023-05-10T06:56:14.860Z,161.77
2023-05-10T06:57:27.519Z,160.66
2023-05-10T06:58:15.870Z,160.87
2023-05-10T06:59:14.852Z,161.23
2023-05-10T07:00:14.980Z,161.29
2023-05-10T07:01:15.068Z,157.28
2023-05-10T07:02:15.006Z,155.06
2023-05-10T07:03:14.831Z,151.18
2023-05-10T07:04:14.862Z,153.48
2023-05-10T07:05:14.811Z,145.43
2023-05-10T07:06:29.512Z,142.49
2023-05-10T07:07:15.805Z,142.71
2023-05-10T07:08:14.760Z,143.15
2023-05-10T07:09:14.762Z,142.70
2023-05-10T07:10:14.767Z,134.80
2023-05-10T07:11:14.768Z,134.39
2023-05-10T07:12:15.896Z,134.86
2023-05-10T07:13:14.899Z,134.81
2023-05-10T07:14:14.760Z,137.52
2023-05-10T07:15:14.872Z,136.15
2023-05-10T07:16:14.748Z,132.82
2023-05-10T07:17:14.749Z,133.17
2023-05-10T07:18:14.831Z,132.91
2023-05-10T07:19:14.861Z,130.29
2023-05-10T07:20:15.367Z,130.56
2023-05-10T07:21:15.992Z,130.94
2023-05-10T07:22:15.083Z,132.49
2023-05-10T07:23:15.120Z,129.58
2023-05-10T07:24:15.161Z,127.41
2023-05-10T07:25:15.466Z,125.49
2023-05-10T07:26:15.282Z,121.28
2023-05-10T07:27:15.325Z,121.33
2023-05-10T07:28:15.399Z,119.94
2023-05-10T07:29:15.473Z,119.14
2023-05-10T07:30:15.514Z,112.50
2023-05-10T07:31:15.551Z,112.43
2023-05-10T07:32:15.735Z,105.51
2023-05-10T07:33:15.811Z,105.00
2023-05-10T07:34:15.783Z,106.15
2023-05-10T07:35:16.072Z,103.75
2023-05-10T07:36:15.870Z,99.35
2023-05-10T07:37:15.925Z,97.61
2023-05-10T07:38:15.993Z,97.57
2023-05-10T07:39:24.409Z,97.10
2023-05-10T07:40:17.027Z,97.35
2023-05-10T07:41:16.019Z,97.32
2023-05-10T07:42:16.023Z,97.15
2023-05-10T07:43:16.016Z,98.98
2023-05-10T07:44:15.975Z,101.72
2023-05-10T07:45:16.190Z,104.65
2023-05-10T07:46:16.063Z,105.11
2023-05-10T07:47:16.019Z,104.20
2023-05-10T07:48:15.989Z,106.71
2023-05-10T07:49:15.986Z,107.98
2023-05-10T07:50:15.976Z,111.21
2023-05-10T07:51:16.078Z,115.20
2023-05-10T07:52:16.163Z,114.98
2023-05-10T07:53:16.167Z,111.23
2023-05-10T07:54:16.189Z,108.62
2023-05-10T07:55:16.478Z,106.45
2023-05-10T07:56:16.264Z,101.80
2023-05-10T07:57:16.343Z,106.55
2023-05-10T07:58:16.415Z,107.79
2023-05-10T07:59:16.425Z,109.49
2023-05-10T08:00:16.473Z,106.42
2023-05-10T08:01:16.528Z,90.15
2023-05-10T08:02:16.604Z,83.74
2023-05-10T08:03:16.738Z,79.13
2023-05-10T08:04:16.751Z,81.46
2023-05-10T08:05:16.836Z,82.70
2023-05-10T08:06:16.778Z,77.91
2023-05-10T08:07:16.810Z,60.10
2023-05-10T08:08:16.891Z,53.71
2023-05-10T08:09:16.956Z,47.02
2023-05-10T08:10:17.007Z,51.89
2023-05-10T08:11:17.026Z,48.11
2023-05-10T08:12:17.080Z,39.75
2023-05-10T08:13:17.125Z,46.59
2023-05-10T08:14:17.238Z,47.87
2023-05-10T08:15:17.520Z,41.59
2023-05-10T08:16:17.472Z,42.55
2023-05-10T08:17:19.692Z,41.17
2023-05-10T08:18:17.380Z,45.88
2023-05-10T08:19:17.341Z,50.47
2023-05-10T08:20:17.404Z,53.68
2023-05-10T08:21:17.404Z,57.87
2023-05-10T08:22:17.344Z,55.54
2023-05-10T08:23:17.323Z,61.07
2023-05-10T08:24:17.324Z,66.44
2023-05-10T08:25:17.615Z,71.36
2023-05-10T08:26:17.335Z,70.83
2023-05-10T08:27:17.301Z,68.87
2023-05-10T08:28:17.308Z,79.20
2023-05-10T08:29:17.310Z,76.37
2023-05-10T08:30:17.395Z,95.20
2023-05-10T08:31:17.370Z,104.98
2023-05-10T08:32:17.292Z,181.13
2023-05-10T08:33:17.323Z,180.13
2023-05-10T08:34:17.286Z,162.07
2023-05-10T08:35:17.615Z,153.14
2023-05-10T08:36:17.253Z,168.65
2023-05-10T08:37:17.282Z,184.74
2023-05-10T08:38:17.227Z,203.72
2023-05-10T08:39:29.332Z,229.55
2023-05-10T08:40:18.446Z,230.05
2023-05-10T08:41:17.329Z,231.68
2023-05-10T08:42:17.229Z,238.79
2023-05-10T08:43:17.235Z,252.53
2023-05-10T08:44:17.213Z,257.62
2023-05-10T08:45:17.418Z,247.65
2023-05-10T08:46:17.242Z,230.11
2023-05-10T08:47:17.185Z,237.84
2023-05-10T08:48:17.213Z,244.37
2023-05-10T08:49:17.164Z,232.26
2023-05-10T08:50:17.236Z,232.26
2023-05-10T08:51:17.400Z,245.82
2023-05-10T08:52:17.341Z,240.99
2023-05-10T08:53:17.397Z,249.38
2023-05-10T08:54:17.437Z,247.89
2023-05-10T08:55:17.720Z,251.11
2023-05-10T08:56:17.542Z,243.72
2023-05-10T08:57:17.574Z,242.31
2023-05-10T08:58:17.620Z,245.71
2023-05-10T08:59:17.662Z,250.00
2023-05-10T09:00:17.675Z,250.00
2023-05-10T09:01:17.782Z,250.00
2023-05-10T09:02:18.878Z,249.38
2023-05-10T09:03:17.839Z,242.89
2023-05-10T09:04:17.967Z,245.66
2023-05-10T09:05:18.096Z,245.85
2023-05-10T09:06:18.417Z,249.55
2023-05-10T09:07:17.994Z,247.48
2023-05-10T09:08:18.005Z,249.85
2023-05-10T09:09:18.027Z,250.00
2023-05-10T09:10:18.037Z,246.54
2023-05-10T09:11:18.418Z,249.85
2023-05-10T09:12:18.073Z,241.46
2023-05-10T09:13:18.198Z,247.14
2023-05-10T09:14:18.156Z,245.03
2023-05-10T09:15:18.382Z,244.07
2023-05-10T09:16:21.654Z,241.91
2023-05-10T09:17:18.271Z,241.92
2023-05-10T09:18:18.238Z,242.81
2023-05-10T09:19:18.172Z,244.91
2023-05-10T09:20:18.217Z,239.32
2023-05-10T09:21:18.173Z,240.16
2023-05-10T09:22:18.171Z,242.56
2023-05-10T09:23:18.140Z,233.66
2023-05-10T09:24:18.139Z,235.99
2023-05-10T09:25:19.265Z,238.65
2023-05-10T09:26:18.464Z,244.10
2023-05-10T09:27:18.112Z,249.07
2023-05-10T09:28:18.128Z,249.18
2023-05-10T09:29:18.231Z,243.09
2023-05-10T09:30:18.105Z,236.03
2023-05-10T09:31:18.899Z,235.83
2023-05-10T09:32:18.095Z,229.61
2023-05-10T09:33:18.088Z,232.33
2023-05-10T09:34:18.102Z,236.27
2023-05-10T09:35:18.233Z,230.64
2023-05-10T09:36:18.146Z,237.86
2023-05-10T09:37:18.084Z,243.17
2023-05-10T09:38:18.068Z,240.58
2023-05-10T09:39:18.050Z,241.09
2023-05-10T09:40:18.079Z,250.00
2023-05-10T09:41:18.453Z,248.28
2023-05-10T09:42:18.019Z,247.66
2023-05-10T09:43:18.040Z,244.14
2023-05-10T09:44:18.026Z,248.05
2023-05-10T09:45:18.172Z,241.40
2023-05-10T09:46:18.056Z,242.58
2023-05-10T09:47:17.990Z,248.05
2023-05-10T09:48:18.010Z,242.90
2023-05-10T09:49:17.978Z,241.35
2023-05-10T09:50:18.030Z,248.21
2023-05-10T09:51:18.437Z,247.71
2023-05-10T09:52:17.977Z,247.16
2023-05-10T09:53:17.969Z,224.11
2023-05-10T09:54:17.976Z,212.32
2023-05-10T09:55:18.190Z,210.93
2023-05-10T09:56:18.428Z,205.25
2023-05-10T09:57:17.951Z,197.18
2023-05-10T09:58:18.015Z,192.54
2023-05-10T09:59:17.933Z,174.85
2023-05-10T10:00:17.913Z,179.27
2023-05-10T10:01:17.968Z,178.15
2023-05-10T10:02:17.927Z,180.05
2023-05-10T10:03:17.953Z,173.32
2023-05-10T10:04:17.904Z,163.43
2023-05-10T10:05:18.109Z,163.18
2023-05-10T10:06:29.056Z,153.33
2023-05-10T10:07:18.877Z,152.01
2023-05-10T10:08:17.874Z,145.27
2023-05-10T10:09:17.856Z,143.66
2023-05-10T10:10:17.855Z,150.96
2023-05-10T10:11:17.954Z,157.00
2023-05-10T10:12:17.820Z,156.77
2023-05-10T10:13:17.822Z,156.85
2023-05-10T10:14:17.837Z,160.21
2023-05-10T10:15:18.374Z,159.50
2023-05-10T10:16:17.871Z,160.33
2023-05-10T10:17:17.824Z,150.12
2023-05-10T10:18:17.825Z,145.78
2023-05-10T10:19:17.791Z,145.31
2023-05-10T10:20:18.038Z,136.49
2023-05-10T10:21:17.788Z,140.94
2023-05-10T10:22:17.791Z,132.18
2023-05-10T10:23:17.987Z,133.96
2023-05-10T10:24:17.752Z,136.57
2023-05-10T10:25:18.099Z,143.51
2023-05-10T10:26:17.972Z,141.76
2023-05-10T10:27:17.801Z,143.95
2023-05-10T10:28:17.833Z,139.08
2023-05-10T10:29:17.902Z,141.99
2023-05-10T10:30:17.905Z,134.15
2023-05-10T10:31:17.993Z,116.00
2023-05-10T10:32:17.984Z,114.67
2023-05-10T10:33:27.920Z,113.33
2023-05-10T10:34:19.031Z,113.71
2023-05-10T10:35:18.301Z,114.66
2023-05-10T10:36:19.385Z,116.30
2023-05-10T10:37:18.044Z,122.66
2023-05-10T10:38:17.967Z,124.11
2023-05-10T10:39:17.975Z,128.72
2023-05-10T10:40:17.994Z,132.57
2023-05-10T10:41:17.954Z,134.50
2023-05-10T10:42:17.961Z,131.41
2023-05-10T10:43:17.944Z,126.41
2023-05-10T10:44:17.940Z,119.92
2023-05-10T10:45:18.305Z,122.48
2023-05-10T10:46:18.076Z,120.37
2023-05-10T10:47:18.013Z,117.58
2023-05-10T10:48:17.918Z,116.56
2023-05-10T10:49:17.942Z,107.11
2023-05-10T10:50:17.876Z,106.28
2023-05-10T10:51:17.859Z,112.11
2023-05-10T10:52:17.896Z,107.87
2023-05-10T10:53:18.040Z,92.93
2023-05-10T10:54:17.980Z,101.10
2023-05-10T10:55:18.250Z,103.56
2023-05-10T10:56:18.099Z,119.12
2023-05-10T10:57:18.138Z,118.25
2023-05-10T10:58:18.184Z,112.57
2023-05-10T10:59:18.291Z,105.60
2023-05-10T11:00:18.348Z,95.08
2023-05-10T11:01:18.467Z,97.05
2023-05-10T11:02:18.567Z,99.62
2023-05-10T11:03:18.486Z,98.86
2023-05-10T11:04:18.534Z,83.63
2023-05-10T11:05:18.645Z,82.63
2023-05-10T11:06:18.626Z,83.33
2023-05-10T11:07:18.663Z,88.88
2023-05-10T11:08:18.697Z,99.00
2023-05-10T11:09:18.767Z,95.76
2023-05-10T11:10:18.781Z,92.84
2023-05-10T11:11:18.880Z,89.31
2023-05-10T11:12:18.883Z,83.11
2023-05-10T11:13:18.994Z,73.76
2023-05-10T11:14:19.033Z,63.61
2023-05-10T11:15:19.083Z,49.72
2023-05-10T11:16:19.195Z,48.33
2023-05-10T11:17:19.119Z,44.63
2023-05-10T11:18:19.191Z,41.16
2023-05-10T11:19:19.205Z,35.80
2023-05-10T11:20:19.487Z,27.67
2023-05-10T11:21:19.324Z,26.36
2023-05-10T11:22:19.357Z,34.86
2023-05-10T11:23:19.431Z,33.35
2023-05-10T11:24:19.443Z,36.80
2023-05-10T11:25:19.538Z,39.25
2023-05-10T11:26:19.562Z,39.12
2023-05-10T11:27:20.006Z,49.62
2023-05-10T11:28:19.685Z,67.22
2023-05-10T11:29:19.723Z,76.52
2023-05-10T11:30:19.977Z,81.68
2023-05-10T11:31:19.939Z,105.05
2023-05-10T11:32:19.996Z,119.90
2023-05-10T11:33:19.935Z,129.73
2023-05-10T11:34:19.999Z,134.21
2023-05-10T11:35:20.072Z,139.16
2023-05-10T11:36:20.096Z,143.07
2023-05-10T11:37:20.490Z,143.79
2023-05-10T11:38:20.201Z,151.75
2023-05-10T11:39:20.327Z,155.88
2023-05-10T11:40:20.488Z,157.45
2023-05-10T11:41:20.334Z,171.92
2023-05-10T11:42:20.440Z,179.11
2023-05-10T11:43:20.488Z,181.40
2023-05-10T11:44:20.470Z,183.49
2023-05-10T11:45:20.533Z,186.60
2023-05-10T11:46:20.538Z,189.94
2023-05-10T11:47:20.672Z,191.91
2023-05-10T11:48:20.676Z,193.49
2023-05-10T11:49:20.694Z,197.20
2023-05-10T11:50:20.727Z,199.51
2023-05-10T11:51:20.824Z,197.85
2023-05-10T11:52:20.816Z,199.88
2023-05-10T11:53:20.827Z,199.77
2023-05-10T11:54:20.856Z,204.28
2023-05-10T11:55:20.878Z,203.87
2023-05-10T11:56:20.896Z,205.71
2023-05-10T11:57:20.935Z,207.93
2023-05-10T11:58:20.973Z,208.46
2023-05-10T11:59:21.011Z,208.21
2023-05-10T12:00:21.031Z,212.21
2023-05-10T12:01:21.031Z,211.92
2023-05-10T12:02:21.135Z,209.59
2023-05-10T12:03:21.176Z,211.24
2023-05-10T12:04:21.411Z,212.75
2023-05-10T12:05:21.196Z,210.90
2023-05-10T12:06:21.218Z,211.01
2023-05-10T12:07:21.243Z,211.93
2023-05-10T12:08:21.268Z,210.18
2023-05-10T12:09:35.406Z,212.42
2023-05-10T12:10:22.322Z,212.67
2023-05-10T12:11:21.246Z,213.25
2023-05-10T12:12:21.252Z,212.93
2023-05-10T12:13:21.265Z,214.71
2023-05-10T12:14:21.222Z,214.13
2023-05-10T12:15:21.235Z,216.04
2023-05-10T12:16:21.307Z,215.36
2023-05-10T12:17:21.294Z,215.62
2023-05-10T12:18:21.241Z,218.67
2023-05-10T12:19:21.232Z,216.15
2023-05-10T12:20:21.197Z,216.01
2023-05-10T12:21:21.202Z,215.67
2023-05-10T12:22:21.191Z,215.64
2023-05-10T12:23:21.161Z,213.84
2023-05-10T12:24:21.193Z,213.28
2023-05-10T12:25:21.171Z,215.48
2023-05-10T12:26:21.157Z,213.79
2023-05-10T12:27:21.166Z,213.51
2023-05-10T12:28:21.181Z,214.61
2023-05-10T12:29:21.284Z,213.06
2023-05-10T12:30:21.261Z,213.79